KJER

Jerome County Airport

Jerome, Idaho, USA
METAR KJER 180753Z AUTO 00000KT 10SM BKN040 OVC046 M01/M05 A3023 RMK AO2 SLP262 T10111050
Observed Flight Rules
Dec-18 @ 07:53 UTC (47 minutes ago) Visual Flight Rules
Wind Visibility Clouds
Calm 10 miles
  • Broken at 4,000' AGL
  • Overcast at 4,600' AGL
Temperatures Readings
Current -1°C / 30°F
Dewpoint -5°C / 23°F
Humidity 75%
Altimeter 30.23" Hg
Pressure 1026.2 hPa
Elevation 1222
METAR KJER 180753Z AUTO 00000KT 10SM BKN040 OVC046 M01/M05 A3023 RMK AO2 SLP262 T10111050
Observed Flight Rules
Dec-18 @ 07:53 UTC
(47 minutes ago)
VFR
Wind Visibility
Calm 10 miles
Clouds
  • Broken at 4,000' AGL
  • Overcast at 4,600' AGL
Temperature Dewpoint
-1°C / 30°F -5°C / 23°F
Humidity Altimeter Pressure
75% 30.23" Hg 1026.2 hPa